Time;durP1;ratioP1;P1;durP2;ratioP2;P2;SDS_P1;SDS_P2;PMS_P1;PMS_P2;Temp;Humidity;BMP_temperature;BMP_pressure;BME280_temperature;BME280_humidity;BME280_pressure;Samples;Min_cycle;Max_cycle;Signal;HPM_P1;HPM_P2
2021/12/08 00:00:53;;;;;;;39.45;24.45;;;5.90;63.30;;;;;;5037390;28;20025;-65
2021/12/08 00:03:22;;;;;;;38.67;23.95;;;5.90;63.40;;;;;;5056238;28;20031;-69
2021/12/08 00:05:48;;;;;;;38.17;23.40;;;5.90;63.50;;;;;;5055043;28;20029;-63
2021/12/08 00:08:16;;;;;;;44.70;25.02;;;5.90;63.20;;;;;;5055640;28;20039;-63
2021/12/08 00:13:19;;;;;;;42.08;25.75;;;5.80;63.50;;;;;;5056221;28;20033;-62
2021/12/08 00:15:50;;;;;;;46.13;28.52;;;5.80;63.80;;;;;;5055142;28;20025;-64
2021/12/08 00:18:24;;;;;;;40.28;25.17;;;5.80;64.30;;;;;;5055339;28;20577;-61
2021/12/08 00:20:52;;;;;;;;;;;5.70;64.60;;;;;;5055792;28;20033;-62
2021/12/08 00:23:18;;;;;;;51.30;26.85;;;5.60;65.30;;;;;;5038076;28;19962;-61
2021/12/08 00:25:44;;;;;;;49.47;28.40;;;5.50;65.40;;;;;;5055274;28;20049;-66
2021/12/08 00:28:11;;;;;;;44.53;27.17;;;5.50;66.00;;;;;;5055643;28;20441;-64
2021/12/08 00:30:39;;;;;;;44.95;27.00;;;5.40;66.60;;;;;;5055538;28;20525;-62
2021/12/08 00:33:06;;;;;;;44.72;26.00;;;5.30;66.90;;;;;;5055313;28;20429;-63
2021/12/08 00:35:32;;;;;;;44.08;28.25;;;5.20;67.00;;;;;;5037703;28;20039;-65
2021/12/08 00:37:59;;;;;;;47.58;27.33;;;5.20;67.50;;;;;;5037021;28;20155;-65
2021/12/08 00:40:27;;;;;;;45.35;26.83;;;5.20;67.60;;;;;;5037549;28;20480;-64
2021/12/08 00:42:53;;;;;;;45.15;26.33;;;5.20;67.70;;;;;;5055024;28;20075;-65
2021/12/08 00:45:21;;;;;;;46.30;26.85;;;5.10;67.70;;;;;;5055450;28;20095;-67
2021/12/08 00:47:48;;;;;;;46.33;27.92;;;5.10;67.70;;;;;;5053964;28;20040;-65
2021/12/08 00:50:15;;;;;;;42.33;26.05;;;5.10;68.00;;;;;;5037285;28;20454;-63
2021/12/08 00:52:42;;;;;;;43.78;26.35;;;5.10;68.00;;;;;;5036978;28;20470;-66
2021/12/08 00:55:11;;;;;;;41.75;26.23;;;5.10;68.10;;;;;;5037144;28;20044;-65
2021/12/08 00:57:37;;;;;;;42.92;25.73;;;5.10;68.50;;;;;;5054622;28;20033;-66
2021/12/08 01:00:13;;;;;;;45.20;27.85;;;5.00;68.70;;;;;;5054409;28;20255;-66
2021/12/08 01:02:39;;;;;;;47.40;28.50;;;5.00;69.00;;;;;;5054945;28;20448;-65
2021/12/08 01:05:11;;;;;;;42.88;26.70;;;5.00;69.30;;;;;;5036490;28;20029;-67
2021/12/08 01:07:37;;;;;;;42.95;26.67;;;5.00;69.40;;;;;;5054943;28;20378;-65
2021/12/08 01:10:06;;;;;;;50.25;28.15;;;5.00;69.50;;;;;;5053809;28;20382;-63
2021/12/08 01:12:32;;;;;;;45.45;27.95;;;4.90;69.30;;;;;;5054819;28;20029;-64
2021/12/08 01:14:58;;;;;;;45.58;28.15;;;4.90;69.90;;;;;;5054270;28;20029;-66
2021/12/08 01:17:24;;;;;;;44.10;26.48;;;4.90;69.20;;;;;;5054649;28;20462;-65
2021/12/08 01:19:49;;;;;;;45.22;29.02;;;4.90;69.20;;;;;;5054102;28;20114;-63
2021/12/08 01:22:16;;;;;;;46.95;29.42;;;4.90;69.00;;;;;;5054412;28;20381;-70
2021/12/08 01:24:41;;;;;;;49.60;29.75;;;4.90;69.00;;;;;;5054250;28;20432;-62
2021/12/08 01:27:07;;;;;;;47.60;29.75;;;4.90;69.00;;;;;;5053226;28;20048;-64
2021/12/08 01:29:33;;;;;;;50.42;29.13;;;4.80;68.80;;;;;;5036552;28;20029;-63
2021/12/08 01:31:59;;;;;;;54.72;32.67;;;4.80;68.80;;;;;;5036016;28;20031;-64
2021/12/08 01:34:24;;;;;;;52.55;31.27;;;4.80;68.90;;;;;;5036252;28;20053;-68
2021/12/08 01:36:50;;;;;;;52.13;31.83;;;4.70;68.80;;;;;;5035777;28;20032;-66
2021/12/08 01:39:16;;;;;;;52.58;29.77;;;4.70;68.60;;;;;;5036201;28;20032;-66
2021/12/08 01:41:42;;;;;;;50.25;31.48;;;4.70;68.50;;;;;;5053965;28;20025;-70
2021/12/08 01:46:54;;;;;;;53.40;32.13;;;4.60;68.10;;;;;;5053600;28;20445;-68
2021/12/08 01:49:19;;;;;;;60.63;33.85;;;4.40;67.90;;;;;;5053666;28;20025;-65
2021/12/08 01:51:45;;;;;;;59.00;32.38;;;4.30;68.30;;;;;;5053804;28;20458;-70
2021/12/08 01:54:11;;;;;;;54.65;32.03;;;4.30;68.50;;;;;;5035785;28;20029;-70
2021/12/08 01:56:38;;;;;;;51.53;30.63;;;4.30;68.70;;;;;;5053666;28;20029;-68
2021/12/08 01:59:06;;;;;;;55.60;31.25;;;4.20;68.70;;;;;;5052323;28;20078;-67
2021/12/08 02:01:34;;;;;;;57.00;32.90;;;4.20;68.50;;;;;;5053402;28;20032;-68
2021/12/08 02:04:04;;;;;;;55.00;31.70;;;4.20;68.30;;;;;;5053061;28;20119;-68
2021/12/08 02:06:40;;;;;;;57.97;32.05;;;4.20;68.30;;;;;;5053776;28;20029;-71
2021/12/08 02:09:10;;;;;;;53.17;30.42;;;4.20;68.40;;;;;;5052880;28;20067;-68
2021/12/08 02:11:41;;;;;;;60.08;33.83;;;4.20;68.30;;;;;;5053662;28;20021;-75
2021/12/08 02:14:08;;;;;;;56.80;32.42;;;4.20;68.40;;;;;;5053000;28;20095;-66
2021/12/08 02:16:33;;;;;;;57.65;33.30;;;4.30;68.40;;;;;;5053269;28;20035;-65
2021/12/08 02:19:00;;;;;;;57.92;32.28;;;4.20;68.20;;;;;;5052877;28;20025;-66
2021/12/08 02:21:35;;;;;;;56.25;31.88;;;4.30;68.20;;;;;;5035447;28;20454;-68
2021/12/08 02:24:06;;;;;;;62.03;33.90;;;4.30;68.10;;;;;;5035615;28;20021;-69
2021/12/08 02:26:33;;;;;;;59.22;33.47;;;4.30;68.10;;;;;;5053068;28;20025;-66
2021/12/08 02:29:05;;;;;;;58.58;32.60;;;4.40;68.20;;;;;;5034545;28;20035;-69
2021/12/08 02:31:39;;;;;;;60.20;34.22;;;4.40;68.30;;;;;;5053296;28;20108;-67
2021/12/08 02:48:07;;;;;;;61.67;35.60;;;4.30;69.00;;;;;;5052251;28;20036;-65
2021/12/08 02:50:37;;;;;;;64.32;34.58;;;4.20;69.50;;;;;;5052449;28;20025;-66
2021/12/08 02:53:04;;;;;;;69.47;35.83;;;3.70;70.70;;;;;;5034351;28;20044;-65
2021/12/08 02:55:31;;;;;;;68.88;36.88;;;3.50;71.50;;;;;;5052398;28;20052;-66
2021/12/08 02:57:57;;;;;;;69.38;36.65;;;3.60;71.80;;;;;;5051780;28;20386;-65
2021/12/08 03:00:26;;;;;;;68.95;37.88;;;3.40;72.40;;;;;;5034789;28;20413;-67
2021/12/08 03:02:56;;;;;;;72.38;37.78;;;3.20;73.20;;;;;;5034443;28;20036;-65
2021/12/08 03:05:22;;;;;;;68.00;36.20;;;3.20;73.70;;;;;;5052602;28;20043;-66
2021/12/08 03:07:48;;;;;;;69.63;36.40;;;3.40;73.30;;;;;;5034350;28;20025;-69
2021/12/08 03:10:19;;;;;;;68.13;37.35;;;3.40;73.70;;;;;;5034231;28;20036;-67
2021/12/08 03:12:45;;;;;;;67.47;36.67;;;3.40;73.10;;;;;;5052209;28;20017;-65
2021/12/08 03:15:12;;;;;;;71.63;37.92;;;3.50;72.80;;;;;;5051999;28;20072;-65
2021/12/08 03:17:38;;;;;;;69.32;36.72;;;3.60;72.30;;;;;;5052544;28;20083;-69
2021/12/08 03:20:08;;;;;;;70.90;37.38;;;3.50;72.30;;;;;;5034034;28;20033;-66
2021/12/08 03:22:37;;;;;;;72.38;37.80;;;3.50;72.50;;;;;;5052124;28;20032;-67
2021/12/08 03:25:06;;;;;;;74.43;38.90;;;3.40;73.00;;;;;;5033931;28;20405;-68
2021/12/08 03:27:43;;;;;;;72.75;38.33;;;3.30;73.50;;;;;;5051988;28;20048;-69
2021/12/08 03:30:19;;;;;;;75.30;38.47;;;3.30;73.60;;;;;;5051803;28;20025;-68
2021/12/08 03:32:45;;;;;;;71.75;37.10;;;3.20;73.80;;;;;;5034414;28;20026;-65
2021/12/08 03:35:15;;;;;;;73.57;37.70;;;3.30;73.80;;;;;;5033940;28;20033;-65
2021/12/08 03:37:44;;;;;;;74.50;38.80;;;3.40;73.20;;;;;;5034249;28;20040;-65
2021/12/08 03:40:17;;;;;;;69.85;37.28;;;3.30;73.40;;;;;;5033668;28;20166;-63
2021/12/08 03:42:44;;;;;;;75.53;38.35;;;3.30;73.50;;;;;;5052411;28;20025;-66
2021/12/08 03:45:15;;;;;;;73.70;37.67;;;3.20;73.90;;;;;;5051281;28;20029;-64
2021/12/08 03:47:46;;;;;;;76.72;38.83;;;3.20;74.00;;;;;;5052282;28;20037;-65
2021/12/08 03:50:15;;;;;;;76.80;38.83;;;3.20;73.80;;;;;;5033855;28;20033;-64
2021/12/08 03:52:41;;;;;;;78.50;39.35;;;3.10;74.10;;;;;;5034264;28;20029;-63
2021/12/08 03:55:11;;;;;;;77.30;39.53;;;3.20;74.10;;;;;;5051409;28;20127;-63
2021/12/08 03:57:37;;;;;;;81.97;39.92;;;3.30;74.50;;;;;;5052163;28;20044;-64
2021/12/08 04:00:08;;;;;;;82.07;38.53;;;3.40;73.50;;;;;;5051903;28;20029;-63
2021/12/08 04:02:33;;;;;;;82.88;39.97;;;3.40;73.20;;;;;;5052226;28;20021;-61
2021/12/08 04:04:59;;;;;;;80.15;38.28;;;3.40;72.90;;;;;;5051502;28;20074;-63
2021/12/08 04:07:26;;;;;;;86.82;41.28;;;3.40;72.50;;;;;;5052306;28;20377;-63
2021/12/08 04:09:52;;;;;;;80.40;38.45;;;3.30;72.70;;;;;;5052153;28;20051;-62
2021/12/08 04:12:20;;;;;;;83.30;40.97;;;3.30;73.00;;;;;;5033730;28;20033;-67
2021/12/08 04:14:51;;;;;;;92.25;41.78;;;3.20;73.00;;;;;;5033923;28;20035;-66
2021/12/08 04:17:39;;;;;;;86.25;40.70;;;2.90;73.90;;;;;;5051123;28;20204;-62
2021/12/08 04:20:14;;;;;;;83.00;39.63;;;2.90;74.20;;;;;;5051696;28;20029;-66
2021/12/08 04:22:43;;;;;;;82.30;39.95;;;2.80;74.60;;;;;;5051982;28;20029;-64
2021/12/08 04:25:15;;;;;;;81.47;40.55;;;2.90;74.60;;;;;;5054744;28;20537;-65
2021/12/08 04:27:42;;;;;;;79.60;38.65;;;3.00;74.20;;;;;;5054517;28;20044;-64
2021/12/08 04:30:16;;;;;;;89.85;42.28;;;3.10;74.00;;;;;;5074448;28;20020;-66
2021/12/08 04:32:42;;;;;;;89.22;42.30;;;3.00;73.60;;;;;;5074206;28;20082;-63
2021/12/08 04:35:11;;;;;;;82.53;40.78;;;2.90;74.50;;;;;;5074647;28;20052;-68
2021/12/08 04:37:44;;;;;;;80.40;39.17;;;2.90;74.50;;;;;;5075362;28;20028;-66
2021/12/08 04:45:24;;;;;;;88.70;39.05;;;3.00;74.10;;;;;;5073362;28;20382;-69
2021/12/08 04:53:46;;;;;;;85.10;41.22;;;2.50;74.90;;;;;;5074389;28;20032;-64
2021/12/08 05:02:18;;;;;;;85.28;38.45;;;2.60;75.90;;;;;;5012482;28;20395;-65
2021/12/08 05:07:48;;;;;;;80.57;39.22;;;2.90;75.40;;;;;;5074441;28;20033;-67
2021/12/08 05:10:23;;;;;;;76.70;38.22;;;2.90;75.20;;;;;;5074129;28;20031;-64
2021/12/08 05:12:51;;;;;;;79.32;38.67;;;3.10;74.90;;;;;;5074462;28;20028;-63
2021/12/08 05:15:22;;;;;;;77.22;38.75;;;3.10;74.50;;;;;;5074084;28;20457;-76
2021/12/08 05:17:56;;;;;;;81.30;39.53;;;3.20;74.20;;;;;;5074277;28;20024;-63
2021/12/08 05:20:33;;;;;;;79.82;37.90;;;3.20;73.80;;;;;;5073380;28;20639;-64
2021/12/08 05:23:06;;;;;;;81.90;38.78;;;3.10;73.70;;;;;;5073191;28;20052;-69
2021/12/08 05:25:36;;;;;;;75.38;38.10;;;3.10;73.80;;;;;;5074478;28;20112;-64
2021/12/08 05:28:05;;;;;;;76.68;37.75;;;3.10;73.80;;;;;;5072673;28;20048;-65
2021/12/08 05:30:40;;;;;;;81.10;39.28;;;3.10;74.00;;;;;;5074024;28;20466;-66
2021/12/08 05:33:07;;;;;;;77.53;38.60;;;3.00;74.00;;;;;;5073510;28;20024;-66
2021/12/08 05:35:34;;;;;;;75.90;37.20;;;3.00;74.10;;;;;;5073764;28;20198;-61
2021/12/08 05:38:00;;;;;;;76.22;37.90;;;3.00;74.30;;;;;;5072683;28;20028;-65
2021/12/08 05:40:39;;;;;;;77.40;38.30;;;3.00;74.30;;;;;;5073682;28;20032;-66
2021/12/08 05:43:07;;;;;;;84.28;39.92;;;2.90;74.30;;;;;;5072716;28;20465;-63
2021/12/08 05:45:34;;;;;;;78.53;38.13;;;2.90;74.60;;;;;;5073744;28;20032;-66
2021/12/08 05:48:00;;;;;;;77.25;38.13;;;2.80;74.50;;;;;;5073644;28;20024;-64
2021/12/08 05:50:37;;;;;;;75.40;36.85;;;2.70;74.90;;;;;;5073158;28;20469;-64
2021/12/08 05:53:04;;;;;;;78.45;37.28;;;2.60;75.00;;;;;;5071972;28;20056;-62
2021/12/08 05:55:31;;;;;;;72.95;36.85;;;2.50;75.80;;;;;;5073877;28;20027;-68
2021/12/08 05:57:58;;;;;;;80.85;38.05;;;2.30;76.30;;;;;;5072304;28;20025;-62
2021/12/08 06:00:29;;;;;;;74.88;37.35;;;2.30;76.60;;;;;;5073218;28;20535;-66
2021/12/08 06:02:56;;;;;;;80.80;38.42;;;2.20;76.90;;;;;;5073912;28;20093;-66
2021/12/08 06:05:23;;;;;;;84.40;38.85;;;2.10;77.40;;;;;;5071808;28;20025;-63
2021/12/08 06:07:49;;;;;;;75.93;37.13;;;2.20;77.40;;;;;;5072333;28;20135;-67
2021/12/08 06:10:23;;;;;;;78.38;37.60;;;2.20;77.20;;;;;;5072644;28;20471;-62
2021/12/08 06:12:50;;;;;;;82.60;38.60;;;2.10;77.00;;;;;;5073644;28;20124;-63
2021/12/08 06:15:16;;;;;;;79.35;37.10;;;2.20;77.20;;;;;;5071572;28;20032;-70
2021/12/08 06:17:42;;;;;;;75.60;34.95;;;2.10;77.20;;;;;;5071898;28;20035;-63
2021/12/08 06:20:12;;;;;;;78.78;36.72;;;2.10;77.20;;;;;;5072689;28;20028;-63
2021/12/08 06:22:40;;;;;;;75.05;35.40;;;2.10;77.10;;;;;;5072907;28;20054;-65
2021/12/08 06:25:07;;;;;;;72.55;34.70;;;2.10;77.10;;;;;;5072803;28;20091;-66
2021/12/08 06:27:33;;;;;;;73.43;34.55;;;2.10;77.10;;;;;;5063949;28;20045;-74
2021/12/08 06:29:59;;;;;;;70.80;33.97;;;2.10;77.20;;;;;;5053143;28;20043;-63
2021/12/08 06:32:25;;;;;;;66.32;33.05;;;2.10;77.00;;;;;;5052247;28;20498;-69
2021/12/08 06:34:56;;;;;;;64.78;31.60;;;2.10;77.00;;;;;;5035311;28;20051;-67
2021/12/08 06:37:29;;;;;;;64.65;33.03;;;2.20;76.80;;;;;;5052191;28;20025;-67
2021/12/08 06:40:12;;;;;;;59.22;30.85;;;2.30;76.80;;;;;;5053250;28;20033;-65
2021/12/08 06:42:39;;;;;;;60.90;30.90;;;2.30;76.60;;;;;;5034945;28;20095;-64
2021/12/08 06:45:12;;;;;;;56.33;29.20;;;2.40;76.60;;;;;;5034682;28;20075;-62
2021/12/08 06:47:38;;;;;;;51.95;27.05;;;2.50;76.30;;;;;;5051294;28;20532;-62
2021/12/08 06:50:19;;;;;;;52.08;28.52;;;2.60;76.00;;;;;;5052119;28;20033;-67
2021/12/08 06:52:46;;;;;;;49.60;26.98;;;2.60;75.60;;;;;;5034546;28;20028;-61
2021/12/08 06:55:22;;;;;;;52.72;27.58;;;2.70;75.40;;;;;;5033769;28;20075;-65
2021/12/08 06:58:10;;;;;;;49.65;26.73;;;2.70;75.10;;;;;;5051893;28;20065;-65
2021/12/08 07:00:53;;;;;;;44.63;25.17;;;2.70;74.90;;;;;;5051830;28;20033;-66
2021/12/08 07:06:11;;;;;;;43.95;24.20;;;2.70;74.50;;;;;;5052086;28;20033;-65
2021/12/08 07:08:45;;;;;;;48.25;26.00;;;2.60;74.20;;;;;;5034281;28;20087;-66
2021/12/08 07:11:14;;;;;;;48.67;25.85;;;2.60;74.50;;;;;;5051323;28;20028;-65
2021/12/08 07:13:40;;;;;;;48.90;25.63;;;2.70;74.60;;;;;;5052257;28;20047;-66
2021/12/08 07:16:11;;;;;;;45.50;26.90;;;2.70;74.50;;;;;;5033616;28;20132;-63
2021/12/08 07:18:56;;;;;;;45.58;25.42;;;2.80;74.30;;;;;;5034064;28;20036;-65
2021/12/08 07:21:27;;;;;;;46.70;26.27;;;2.80;74.50;;;;;;5051423;28;20087;-65
2021/12/08 07:24:10;;;;;;;48.50;26.42;;;2.90;74.20;;;;;;5051757;28;20021;-69
2021/12/08 07:26:38;;;;;;;47.92;29.00;;;2.90;73.90;;;;;;5033617;28;20459;-66
2021/12/08 07:29:08;;;;;;;51.25;37.67;;;3.10;74.50;;;;;;5051542;28;20048;-65
2021/12/08 07:31:40;;;;;;;46.95;35.20;;;4.40;72.00;;;;;;5051240;28;20064;-63
2021/12/08 07:34:15;;;;;;;47.67;33.28;;;5.30;67.70;;;;;;5033577;28;20074;-64
2021/12/08 07:36:44;;;;;;;43.50;26.52;;;5.40;65.50;;;;;;5033790;28;20028;-66
2021/12/08 07:39:16;;;;;;;37.25;23.40;;;5.30;65.60;;;;;;5051483;28;20108;-62
2021/12/08 07:41:49;;;;;;;36.80;23.80;;;5.00;66.20;;;;;;5033710;28;20048;-63
2021/12/08 07:44:15;;;;;;;41.47;22.75;;;4.70;66.50;;;;;;5050733;28;20021;-65
2021/12/08 07:46:49;;;;;;;36.33;23.23;;;4.40;66.40;;;;;;5051652;28;20093;-66
2021/12/08 07:49:25;;;;;;;40.35;21.75;;;4.20;67.40;;;;;;5051117;28;20088;-65
2021/12/08 07:52:06;;;;;;;41.05;24.20;;;4.00;68.30;;;;;;5035086;28;20095;-66
2021/12/08 07:54:33;;;;;;;35.20;21.75;;;4.00;69.10;;;;;;5050896;28;20029;-63
2021/12/08 07:57:19;;;;;;;34.70;22.02;;;3.90;68.90;;;;;;5050910;28;20466;-63
2021/12/08 07:59:49;;;;;;;39.25;23.45;;;3.80;69.10;;;;;;5037449;28;20064;-65
2021/12/08 08:02:16;;;;;;;37.28;22.40;;;3.60;69.80;;;;;;5054610;28;20048;-65
2021/12/08 08:04:46;;;;;;;37.55;22.00;;;3.60;70.20;;;;;;5055498;28;20051;-65
2021/12/08 08:07:14;;;;;;;37.10;22.05;;;3.70;70.30;;;;;;5055295;28;20041;-63
2021/12/08 08:09:43;;;;;;;41.17;22.30;;;3.60;70.40;;;;;;5053354;28;20549;-64
2021/12/08 08:12:14;;;;;;;35.33;21.90;;;3.60;70.70;;;;;;5054152;28;20075;-68
2021/12/08 08:14:48;;;;;;;36.67;21.63;;;3.50;70.70;;;;;;5038130;28;20374;-63
2021/12/08 08:17:17;;;;;;;32.03;20.63;;;3.60;70.90;;;;;;5055022;28;20029;-66
2021/12/08 08:19:46;;;;;;;38.22;21.75;;;3.60;70.70;;;;;;5037106;28;20116;-67
2021/12/08 08:22:19;;;;;;;39.70;21.80;;;3.70;70.50;;;;;;5037166;28;20035;-68
2021/12/08 08:25:04;;;;;;;38.00;22.57;;;3.80;70.30;;;;;;5054697;28;20056;-64
2021/12/08 08:27:30;;;;;;;37.72;21.98;;;3.90;69.90;;;;;;5049396;28;20313;-69
2021/12/08 08:29:58;;;;;;;35.10;21.08;;;3.90;69.80;;;;;;5073718;28;20059;-68
2021/12/08 08:32:34;;;;;;;33.97;21.55;;;3.90;69.30;;;;;;5072411;28;20031;-67
2021/12/08 08:35:17;;;;;;;36.25;20.65;;;3.90;69.10;;;;;;5074304;28;20025;-68
2021/12/08 08:37:44;;;;;;;35.58;20.73;;;3.80;69.10;;;;;;5073279;28;20024;-64
2021/12/08 08:40:22;;;;;;;34.70;21.13;;;3.80;69.40;;;;;;5073322;28;20043;-65
2021/12/08 08:42:51;;;;;;;36.30;21.33;;;3.70;69.40;;;;;;5073831;28;20470;-65
2021/12/08 08:45:26;;;;;;;36.78;21.15;;;3.80;69.70;;;;;;5073935;28;20032;-65
2021/12/08 08:48:05;;;;;;;35.40;21.40;;;3.70;69.50;;;;;;5071427;28;20021;-67
2021/12/08 08:50:39;;;;;;;35.22;20.73;;;3.80;70.00;;;;;;5073076;28;20055;-67
2021/12/08 08:53:06;;;;;;;34.58;22.48;;;3.80;69.50;;;;;;5073626;28;20473;-66
2021/12/08 08:55:43;;;;;;;38.20;20.92;;;3.90;69.10;;;;;;5072941;28;20035;-66
2021/12/08 08:58:11;;;;;;;37.83;22.42;;;3.80;68.80;;;;;;5071948;28;20239;-64
2021/12/08 09:01:03;;;;;;;38.75;22.77;;;3.70;69.10;;;;;;5072657;28;20044;-68
2021/12/08 09:03:34;;;;;;;36.42;22.95;;;3.70;69.40;;;;;;5070252;28;20482;-68
2021/12/08 09:06:17;;;;;;;34.13;21.92;;;3.90;69.20;;;;;;5071232;28;20029;-64
2021/12/08 09:08:43;;;;;;;35.72;21.15;;;4.00;69.00;;;;;;5072158;28;20039;-64
2021/12/08 09:11:18;;;;;;;35.88;22.23;;;3.90;68.40;;;;;;5071317;28;20052;-64
2021/12/08 09:13:52;;;;;;;35.33;21.75;;;3.90;68.60;;;;;;5072367;28;20035;-64
2021/12/08 09:16:24;;;;;;;35.30;21.85;;;4.00;68.30;;;;;;5055291;28;20060;-63
2021/12/08 09:19:04;;;;;;;38.08;22.05;;;4.10;68.40;;;;;;5073694;28;20021;-61
2021/12/08 09:21:48;;;;;;;36.00;21.10;;;4.10;68.30;;;;;;5070815;28;20036;-68
2021/12/08 09:24:21;;;;;;;34.75;21.25;;;4.20;68.00;;;;;;5073446;28;20025;-70
2021/12/08 09:26:57;;;;;;;36.53;21.27;;;4.20;67.90;;;;;;5068840;28;20113;-69
2021/12/08 09:29:40;;;;;;;34.72;21.05;;;4.30;67.70;;;;;;5034973;28;20029;-71
2021/12/08 09:32:16;;;;;;;34.58;21.65;;;4.20;67.30;;;;;;5053198;28;20489;-74
2021/12/08 09:34:54;;;;;;;34.63;20.70;;;4.20;67.60;;;;;;5034957;28;20111;-69
2021/12/08 09:37:23;;;;;;;33.33;20.08;;;4.10;67.80;;;;;;5052531;28;20538;-70
2021/12/08 09:39:58;;;;;;;30.98;19.67;;;4.10;67.90;;;;;;5034483;28;20165;-67
2021/12/08 09:42:47;;;;;;;29.63;18.88;;;4.00;67.70;;;;;;5052510;28;20025;-65
2021/12/08 09:45:25;;;;;;;34.53;19.35;;;4.10;67.80;;;;;;5053053;28;20457;-70
2021/12/08 09:47:52;;;;;;;33.42;19.88;;;4.10;67.90;;;;;;5052681;28;20032;-65
2021/12/08 09:50:18;;;;;;;35.05;19.85;;;4.30;67.90;;;;;;5034478;28;20169;-68
2021/12/08 09:52:46;;;;;;;35.67;19.52;;;4.30;67.30;;;;;;5052395;28;20359;-69
2021/12/08 09:55:16;;;;;;;31.83;19.63;;;4.30;67.20;;;;;;5052351;28;20039;-68
2021/12/08 09:57:43;;;;;;;28.27;18.67;;;4.20;67.40;;;;;;5034332;28;20143;-69
2021/12/08 10:00:17;;;;;;;27.70;18.25;;;4.30;67.30;;;;;;5052634;28;20462;-67
2021/12/08 10:02:43;;;;;;;31.77;19.40;;;4.30;67.10;;;;;;5050440;28;20027;-67
2021/12/08 10:05:13;;;;;;;28.38;17.98;;;4.40;66.90;;;;;;5052468;28;20103;-69
2021/12/08 10:07:40;;;;;;;30.90;19.05;;;4.50;66.40;;;;;;5034645;28;20033;-66
2021/12/08 10:10:08;;;;;;;30.73;19.05;;;4.70;66.60;;;;;;5035274;28;20055;-65
2021/12/08 10:12:35;;;;;;;32.72;18.88;;;4.90;66.20;;;;;;5034645;28;20025;-72
2021/12/08 10:15:02;;;;;;;33.75;19.15;;;5.00;65.30;;;;;;5052962;28;20032;-67
2021/12/08 10:17:28;;;;;;;33.15;18.98;;;5.00;65.00;;;;;;5033473;28;20037;-66
2021/12/08 10:20:10;;;;;;;27.75;18.05;;;5.10;64.40;;;;;;5034415;28;20389;-76
2021/12/08 10:22:37;;;;;;;27.42;17.92;;;5.20;64.80;;;;;;5034218;28;20029;-73
2021/12/08 10:25:11;;;;;;;28.63;18.33;;;5.30;64.40;;;;;;5052452;28;20082;-64
2021/12/08 10:28:14;;;;;;;28.63;18.25;;;5.60;64.60;;;;;;5049736;28;20062;-68
2021/12/08 10:31:06;;;;;;;30.33;18.33;;;6.60;60.30;;;;;;5039856;28;20028;-67
2021/12/08 10:33:51;;;;;;;26.27;16.77;;;7.00;59.90;;;;;;5068305;28;20044;-73
2021/12/08 10:39:04;;;;;;;28.60;17.23;;;7.60;56.90;;;;;;5072667;28;20083;-64
2021/12/08 10:41:44;;;;;;;26.00;16.90;;;7.20;57.30;;;;;;5071851;28;20111;-70
2021/12/08 10:44:10;;;;;;;26.65;16.10;;;6.90;58.00;;;;;;5072381;28;20029;-67
2021/12/08 10:46:38;;;;;;;26.70;17.52;;;6.80;58.80;;;;;;5071743;28;20029;-69
2021/12/08 10:49:26;;;;;;;24.25;17.08;;;6.80;58.90;;;;;;5070417;28;20025;-64
2021/12/08 10:54:38;;;;;;;25.00;16.23;;;6.50;58.80;;;;;;5071855;28;20126;-69
2021/12/08 10:57:31;;;;;;;29.20;15.93;;;6.50;59.70;;;;;;5071946;28;20032;-69
2021/12/08 11:00:05;;;;;;;21.23;14.75;;;6.40;59.60;;;;;;5072127;28;20052;-66
2021/12/08 11:02:39;;;;;;;20.92;14.23;;;6.10;59.80;;;;;;5071517;28;20043;-72
2021/12/08 11:05:29;;;;;;;22.83;14.48;;;6.00;60.80;;;;;;5071833;28;20410;-68
2021/12/08 11:08:11;;;;;;;21.60;13.73;;;6.20;61.20;;;;;;5072429;28;20033;-69
2021/12/08 11:10:40;;;;;;;21.88;13.77;;;6.70;58.80;;;;;;5072063;28;20028;-73
2021/12/08 11:13:08;;;;;;;24.08;13.57;;;6.50;59.30;;;;;;5072231;28;20025;-67
2021/12/08 11:15:35;;;;;;;21.58;13.30;;;6.40;59.40;;;;;;5072102;28;20473;-68
2021/12/08 11:18:30;;;;;;;18.38;13.20;;;6.40;59.90;;;;;;5073158;28;20032;-72
2021/12/08 11:21:03;;;;;;;19.48;11.52;;;6.70;59.80;;;;;;5072310;28;20043;-72
2021/12/08 11:23:43;;;;;;;17.98;12.18;;;7.40;57.20;;;;;;5070603;28;20040;-67
2021/12/08 11:26:19;;;;;;;18.55;12.57;;;7.20;56.60;;;;;;5072237;28;20036;-68
2021/12/08 11:29:00;;;;;;;19.08;13.05;;;6.90;57.40;;;;;;5054901;28;20063;-69
2021/12/08 11:31:59;;;;;;;23.67;13.27;;;6.80;58.30;;;;;;5053626;28;20425;-70
2021/12/08 11:34:31;;;;;;;19.88;12.02;;;6.60;57.70;;;;;;5037846;28;20090;-66
2021/12/08 11:37:01;;;;;;;16.70;10.88;;;6.50;58.50;;;;;;5038649;28;20029;-74
2021/12/08 11:39:29;;;;;;;15.80;10.68;;;6.30;58.10;;;;;;5037440;28;20083;-69
2021/12/08 11:42:00;;;;;;;15.20;10.52;;;6.20;58.80;;;;;;5056483;28;20112;-76
2021/12/08 11:44:30;;;;;;;18.65;11.15;;;6.10;59.30;;;;;;5055948;28;20036;-69
2021/12/08 11:47:00;;;;;;;16.52;11.50;;;6.00;59.80;;;;;;5055766;28;20056;-67
2021/12/08 11:49:26;;;;;;;17.35;10.95;;;6.00;60.00;;;;;;5055683;28;20428;-65
2021/12/08 11:52:13;;;;;;;20.25;11.45;;;6.00;60.00;;;;;;5056227;28;20094;-69
2021/12/08 11:54:52;;;;;;;20.83;11.38;;;6.10;60.10;;;;;;5038006;28;20117;-66
2021/12/08 11:57:18;;;;;;;18.38;10.70;;;6.10;60.00;;;;;;5055403;28;20033;-66
2021/12/08 11:59:48;;;;;;;16.20;10.55;;;6.00;60.20;;;;;;5054903;28;20102;-66
2021/12/08 12:02:15;;;;;;;16.23;9.95;;;5.90;60.20;;;;;;5055353;28;20079;-67
2021/12/08 12:04:43;;;;;;;16.42;10.88;;;6.00;61.30;;;;;;5054728;28;20029;-68
2021/12/08 12:07:10;;;;;;;16.02;10.55;;;6.00;60.80;;;;;;5055166;28;20029;-67
2021/12/08 12:09:37;;;;;;;15.88;9.85;;;6.20;59.90;;;;;;5054143;28;20021;-67
2021/12/08 12:12:04;;;;;;;17.42;9.75;;;6.20;59.60;;;;;;5054226;28;20025;-68
2021/12/08 12:14:30;;;;;;;15.55;10.13;;;6.20;59.60;;;;;;5038918;28;20025;-71
2021/12/08 12:16:56;;;;;;;17.67;10.00;;;6.20;60.10;;;;;;5039010;28;20029;-76
2021/12/08 12:19:26;;;;;;;15.15;9.35;;;6.20;59.70;;;;;;5056600;28;20037;-75
2021/12/08 12:22:12;;;;;;;16.08;10.05;;;6.20;59.90;;;;;;5037548;28;20037;-66
2021/12/08 12:24:52;;;;;;;16.45;10.55;;;6.20;59.90;;;;;;5037116;28;20041;-72
2021/12/08 12:27:37;;;;;;;14.25;9.13;;;6.30;59.90;;;;;;5055668;28;20048;-70
2021/12/08 12:30:24;;;;;;;15.90;10.55;;;6.30;60.50;;;;;;5055340;28;20037;-76
2021/12/08 12:32:52;;;;;;;15.68;9.43;;;6.40;59.80;;;;;;5054808;28;20044;-73
2021/12/08 12:35:25;;;;;;;15.25;9.45;;;6.30;59.70;;;;;;5055109;28;20029;-70
2021/12/08 12:38:07;;;;;;;15.47;9.13;;;6.30;59.90;;;;;;5055265;28;20033;-69
2021/12/08 12:40:37;;;;;;;14.25;9.70;;;6.30;60.00;;;;;;5054536;28;20044;-73
2021/12/08 12:43:05;;;;;;;17.33;10.05;;;6.30;60.00;;;;;;5054195;28;20021;-73
2021/12/08 12:45:40;;;;;;;14.60;9.48;;;6.30;60.00;;;;;;5053621;28;20052;-68
2021/12/08 12:48:10;;;;;;;14.13;9.25;;;6.30;60.00;;;;;;5036181;28;20075;-71
2021/12/08 12:51:02;;;;;;;13.45;8.95;;;6.30;60.00;;;;;;5053592;28;20052;-70
2021/12/08 12:53:54;;;;;;;16.73;9.13;;;6.30;60.30;;;;;;5035553;28;20037;-67
2021/12/08 12:56:53;;;;;;;13.70;8.32;;;6.20;60.60;;;;;;5055096;28;20032;-74
2021/12/08 12:59:22;;;;;;;17.15;11.15;;;6.20;60.50;;;;;;5036543;28;20442;-77
2021/12/08 13:02:10;;;;;;;15.30;8.35;;;6.20;60.70;;;;;;5035443;28;20021;-67
2021/12/08 13:04:56;;;;;;;15.48;8.57;;;6.20;60.30;;;;;;5053817;28;20075;-66
2021/12/08 13:07:24;;;;;;;13.18;8.23;;;6.10;60.20;;;;;;5036691;28;20056;-76
2021/12/08 13:09:53;;;;;;;18.90;8.30;;;6.10;60.50;;;;;;5019639;28;20365;-69
2021/12/08 13:12:40;;;;;;;13.13;7.70;;;6.00;60.00;;;;;;5054268;28;20025;-69
2021/12/08 13:15:06;;;;;;;12.77;7.50;;;6.10;59.70;;;;;;5036583;28;20028;-72
2021/12/08 13:17:32;;;;;;;11.65;7.65;;;6.20;59.50;;;;;;5035659;28;20102;-70
2021/12/08 13:20:01;;;;;;;11.25;7.63;;;6.20;59.30;;;;;;5035992;28;20485;-73
2021/12/08 13:22:46;;;;;;;11.52;7.40;;;6.20;58.90;;;;;;5053708;28;20031;-68
2021/12/08 13:25:27;;;;;;;13.15;7.60;;;6.20;59.20;;;;;;5053599;28;20082;-69
2021/12/08 13:28:17;;;;;;;12.65;7.53;;;6.20;59.20;;;;;;5053899;28;20175;-73
2021/12/08 13:30:45;;;;;;;12.25;7.15;;;6.20;59.10;;;;;;5053022;28;20115;-68
2021/12/08 13:33:39;;;;;;;13.50;7.80;;;6.20;59.50;;;;;;5036005;28;20033;-72
2021/12/08 13:36:20;;;;;;;12.27;7.72;;;6.10;59.30;;;;;;5053717;28;20017;-70
2021/12/08 13:39:08;;;;;;;10.70;6.72;;;6.20;59.30;;;;;;5052711;28;20033;-65
2021/12/08 13:41:37;;;;;;;15.30;8.50;;;6.20;59.10;;;;;;5034580;28;20562;-64
2021/12/08 13:44:23;;;;;;;13.60;8.20;;;6.10;59.30;;;;;;5053170;28;20025;-66
2021/12/08 13:46:53;;;;;;;12.50;7.28;;;6.20;59.50;;;;;;5034997;28;20112;-69
2021/12/08 13:49:27;;;;;;;13.35;7.03;;;6.20;59.50;;;;;;5034447;28;20054;-68